sensor_id;sensor_type;location;lat;lon;timestamp;P1;durP1;ratioP1;P2;durP2;ratioP2
64353;SDS011;50681;53.334;-6.536;2022-11-20T00:00:55;29.45;;;10.07;;
64353;SDS011;50681;53.334;-6.536;2022-11-20T00:03:20;37.10;;;16.10;;
64353;SDS011;50681;53.334;-6.536;2022-11-20T00:05:46;29.17;;;12.45;;
64353;SDS011;50681;53.334;-6.536;2022-11-20T00:08:12;48.30;;;23.73;;
64353;SDS011;50681;53.334;-6.536;2022-11-20T00:10:38;32.53;;;13.50;;
64353;SDS011;50681;53.334;-6.536;2022-11-20T00:13:05;33.08;;;15.55;;
64353;SDS011;50681;53.334;-6.536;2022-11-20T00:17:57;36.40;;;14.38;;
64353;SDS011;50681;53.334;-6.536;2022-11-20T00:20:22;39.27;;;13.80;;
64353;SDS011;50681;53.334;-6.536;2022-11-20T00:22:49;57.13;;;18.40;;
64353;SDS011;50681;53.334;-6.536;2022-11-20T00:25:14;42.58;;;13.82;;
64353;SDS011;50681;53.334;-6.536;2022-11-20T00:27:39;42.43;;;17.23;;
64353;SDS011;50681;53.334;-6.536;2022-11-20T00:30:05;53.07;;;16.57;;
64353;SDS011;50681;53.334;-6.536;2022-11-20T00:32:31;36.97;;;13.68;;
64353;SDS011;50681;53.334;-6.536;2022-11-20T00:34:57;40.20;;;11.67;;
64353;SDS011;50681;53.334;-6.536;2022-11-20T00:37:22;31.23;;;12.37;;
64353;SDS011;50681;53.334;-6.536;2022-11-20T00:39:48;48.30;;;13.67;;
64353;SDS011;50681;53.334;-6.536;2022-11-20T00:42:13;44.27;;;12.03;;
64353;SDS011;50681;53.334;-6.536;2022-11-20T00:44:38;38.33;;;15.00;;
64353;SDS011;50681;53.334;-6.536;2022-11-20T00:47:04;44.53;;;14.70;;
64353;SDS011;50681;53.334;-6.536;2022-11-20T00:49:30;46.03;;;16.87;;
64353;SDS011;50681;53.334;-6.536;2022-11-20T00:51:55;51.27;;;15.83;;
64353;SDS011;50681;53.334;-6.536;2022-11-20T00:54:21;46.50;;;13.90;;
64353;SDS011;50681;53.334;-6.536;2022-11-20T00:56:46;59.37;;;10.77;;
64353;SDS011;50681;53.334;-6.536;2022-11-20T00:59:11;41.63;;;12.63;;
64353;SDS011;50681;53.334;-6.536;2022-11-20T01:01:37;47.13;;;13.37;;
64353;SDS011;50681;53.334;-6.536;2022-11-20T01:04:03;49.33;;;12.50;;
64353;SDS011;50681;53.334;-6.536;2022-11-20T01:06:29;30.77;;;9.43;;
64353;SDS011;50681;53.334;-6.536;2022-11-20T01:08:58;58.13;;;12.48;;
64353;SDS011;50681;53.334;-6.536;2022-11-20T01:11:26;53.50;;;17.70;;
64353;SDS011;50681;53.334;-6.536;2022-11-20T01:13:57;47.60;;;11.35;;
64353;SDS011;50681;53.334;-6.536;2022-11-20T01:16:29;58.22;;;16.05;;
64353;SDS011;50681;53.334;-6.536;2022-11-20T01:18:59;46.28;;;10.50;;
64353;SDS011;50681;53.334;-6.536;2022-11-20T01:21:27;39.72;;;9.55;;
64353;SDS011;50681;53.334;-6.536;2022-11-20T01:23:54;48.42;;;8.10;;
64353;SDS011;50681;53.334;-6.536;2022-11-20T01:26:21;57.83;;;10.10;;
64353;SDS011;50681;53.334;-6.536;2022-11-20T01:28:49;60.10;;;10.75;;
64353;SDS011;50681;53.334;-6.536;2022-11-20T01:33:42;40.10;;;8.13;;
64353;SDS011;50681;53.334;-6.536;2022-11-20T01:36:09;50.53;;;7.85;;
64353;SDS011;50681;53.334;-6.536;2022-11-20T01:38:35;51.33;;;8.88;;
64353;SDS011;50681;53.334;-6.536;2022-11-20T01:41:01;54.07;;;7.83;;
64353;SDS011;50681;53.334;-6.536;2022-11-20T01:43:26;52.33;;;8.97;;
64353;SDS011;50681;53.334;-6.536;2022-11-20T01:48:38;51.92;;;7.47;;
64353;SDS011;50681;53.334;-6.536;2022-11-20T01:51:48;45.42;;;7.15;;
64353;SDS011;50681;53.334;-6.536;2022-11-20T01:54:37;48.13;;;6.95;;
64353;SDS011;50681;53.334;-6.536;2022-11-20T01:57:09;63.60;;;8.85;;
64353;SDS011;50681;53.334;-6.536;2022-11-20T01:59:39;58.13;;;7.63;;
64353;SDS011;50681;53.334;-6.536;2022-11-20T02:02:09;57.42;;;8.70;;
64353;SDS011;50681;53.334;-6.536;2022-11-20T02:04:35;71.23;;;8.33;;
64353;SDS011;50681;53.334;-6.536;2022-11-20T02:07:01;69.68;;;8.95;;
64353;SDS011;50681;53.334;-6.536;2022-11-20T02:09:29;70.05;;;8.68;;
64353;SDS011;50681;53.334;-6.536;2022-11-20T02:11:55;48.10;;;7.97;;
64353;SDS011;50681;53.334;-6.536;2022-11-20T02:14:22;69.28;;;9.73;;
64353;SDS011;50681;53.334;-6.536;2022-11-20T02:19:26;43.30;;;6.68;;
64353;SDS011;50681;53.334;-6.536;2022-11-20T02:27:40;51.88;;;7.63;;
64353;SDS011;50681;53.334;-6.536;2022-11-20T02:30:06;62.03;;;6.77;;
64353;SDS011;50681;53.334;-6.536;2022-11-20T02:32:35;58.28;;;7.15;;
64353;SDS011;50681;53.334;-6.536;2022-11-20T02:35:39;36.72;;;5.70;;
64353;SDS011;50681;53.334;-6.536;2022-11-20T02:37:55;38.58;;;5.55;;
64353;SDS011;50681;53.334;-6.536;2022-11-20T02:40:23;53.05;;;7.22;;
64353;SDS011;50681;53.334;-6.536;2022-11-20T02:42:51;58.60;;;6.93;;
64353;SDS011;50681;53.334;-6.536;2022-11-20T02:45:17;64.45;;;6.15;;
64353;SDS011;50681;53.334;-6.536;2022-11-20T02:47:43;59.43;;;6.50;;
64353;SDS011;50681;53.334;-6.536;2022-11-20T02:50:09;36.60;;;5.43;;
64353;SDS011;50681;53.334;-6.536;2022-11-20T02:52:34;40.17;;;4.85;;
64353;SDS011;50681;53.334;-6.536;2022-11-20T02:55:00;44.20;;;5.27;;
64353;SDS011;50681;53.334;-6.536;2022-11-20T02:57:25;43.83;;;5.80;;
64353;SDS011;50681;53.334;-6.536;2022-11-20T02:59:51;35.93;;;4.50;;
64353;SDS011;50681;53.334;-6.536;2022-11-20T03:02:16;56.50;;;5.43;;
64353;SDS011;50681;53.334;-6.536;2022-11-20T03:04:42;42.77;;;5.43;;
64353;SDS011;50681;53.334;-6.536;2022-11-20T03:07:07;34.87;;;4.80;;
64353;SDS011;50681;53.334;-6.536;2022-11-20T03:09:33;35.20;;;5.57;;
64353;SDS011;50681;53.334;-6.536;2022-11-20T03:11:59;33.33;;;4.57;;
64353;SDS011;50681;53.334;-6.536;2022-11-20T03:14:24;40.83;;;4.77;;
64353;SDS011;50681;53.334;-6.536;2022-11-20T03:16:50;34.40;;;3.97;;
64353;SDS011;50681;53.334;-6.536;2022-11-20T03:19:15;31.00;;;4.50;;
64353;SDS011;50681;53.334;-6.536;2022-11-20T03:21:41;33.90;;;4.63;;
64353;SDS011;50681;53.334;-6.536;2022-11-20T03:24:06;34.37;;;4.77;;
64353;SDS011;50681;53.334;-6.536;2022-11-20T03:26:32;24.50;;;3.90;;
64353;SDS011;50681;53.334;-6.536;2022-11-20T03:28:58;39.20;;;4.57;;
64353;SDS011;50681;53.334;-6.536;2022-11-20T03:31:30;34.45;;;5.40;;
64353;SDS011;50681;53.334;-6.536;2022-11-20T03:33:59;39.40;;;4.57;;
64353;SDS011;50681;53.334;-6.536;2022-11-20T03:36:26;32.95;;;3.97;;
64353;SDS011;50681;53.334;-6.536;2022-11-20T03:38:55;32.50;;;3.83;;
64353;SDS011;50681;53.334;-6.536;2022-11-20T03:41:23;45.85;;;4.53;;
64353;SDS011;50681;53.334;-6.536;2022-11-20T03:43:55;38.08;;;4.35;;
64353;SDS011;50681;53.334;-6.536;2022-11-20T03:46:29;29.02;;;4.05;;
64353;SDS011;50681;53.334;-6.536;2022-11-20T03:48:54;42.22;;;4.53;;
64353;SDS011;50681;53.334;-6.536;2022-11-20T03:51:21;36.35;;;4.25;;
64353;SDS011;50681;53.334;-6.536;2022-11-20T03:53:49;34.65;;;4.55;;
64353;SDS011;50681;53.334;-6.536;2022-11-20T03:56:17;36.55;;;4.57;;
64353;SDS011;50681;53.334;-6.536;2022-11-20T03:58:43;34.25;;;4.78;;
64353;SDS011;50681;53.334;-6.536;2022-11-20T04:01:09;24.40;;;4.43;;
64353;SDS011;50681;53.334;-6.536;2022-11-20T04:03:39;44.53;;;4.65;;
64353;SDS011;50681;53.334;-6.536;2022-11-20T04:06:06;40.88;;;5.00;;
64353;SDS011;50681;53.334;-6.536;2022-11-20T04:08:36;34.73;;;5.17;;
64353;SDS011;50681;53.334;-6.536;2022-11-20T04:13:37;35.40;;;3.95;;
64353;SDS011;50681;53.334;-6.536;2022-11-20T04:16:04;28.50;;;3.70;;
64353;SDS011;50681;53.334;-6.536;2022-11-20T04:18:30;45.55;;;6.55;;
64353;SDS011;50681;53.334;-6.536;2022-11-20T04:20:59;49.23;;;4.83;;
64353;SDS011;50681;53.334;-6.536;2022-11-20T04:23:32;41.80;;;6.72;;
64353;SDS011;50681;53.334;-6.536;2022-11-20T04:26:05;44.58;;;4.82;;
64353;SDS011;50681;53.334;-6.536;2022-11-20T04:28:35;42.78;;;5.13;;
64353;SDS011;50681;53.334;-6.536;2022-11-20T04:31:04;40.78;;;5.18;;
64353;SDS011;50681;53.334;-6.536;2022-11-20T04:33:31;56.43;;;5.80;;
64353;SDS011;50681;53.334;-6.536;2022-11-20T04:36:05;58.65;;;5.32;;
64353;SDS011;50681;53.334;-6.536;2022-11-20T04:38:32;57.38;;;5.63;;
64353;SDS011;50681;53.334;-6.536;2022-11-20T04:41:03;55.43;;;5.83;;
64353;SDS011;50681;53.334;-6.536;2022-11-20T04:43:30;58.00;;;4.88;;
64353;SDS011;50681;53.334;-6.536;2022-11-20T04:45:58;61.83;;;5.57;;
64353;SDS011;50681;53.334;-6.536;2022-11-20T04:48:25;58.08;;;7.20;;
64353;SDS011;50681;53.334;-6.536;2022-11-20T04:53:35;45.72;;;5.07;;
64353;SDS011;50681;53.334;-6.536;2022-11-20T04:56:11;48.97;;;6.07;;
64353;SDS011;50681;53.334;-6.536;2022-11-20T04:58:37;58.55;;;6.82;;
64353;SDS011;50681;53.334;-6.536;2022-11-20T05:01:04;58.03;;;5.63;;
64353;SDS011;50681;53.334;-6.536;2022-11-20T05:03:31;53.88;;;6.28;;
64353;SDS011;50681;53.334;-6.536;2022-11-20T05:05:59;51.47;;;6.27;;
64353;SDS011;50681;53.334;-6.536;2022-11-20T05:08:25;62.05;;;7.05;;
64353;SDS011;50681;53.334;-6.536;2022-11-20T05:10:53;48.00;;;5.63;;
64353;SDS011;50681;53.334;-6.536;2022-11-20T05:13:18;76.53;;;7.82;;
64353;SDS011;50681;53.334;-6.536;2022-11-20T05:15:55;56.80;;;6.47;;
64353;SDS011;50681;53.334;-6.536;2022-11-20T05:18:20;52.53;;;6.28;;
64353;SDS011;50681;53.334;-6.536;2022-11-20T05:20:46;38.53;;;4.87;;
64353;SDS011;50681;53.334;-6.536;2022-11-20T05:23:11;63.50;;;7.93;;
64353;SDS011;50681;53.334;-6.536;2022-11-20T05:25:37;56.77;;;5.70;;
64353;SDS011;50681;53.334;-6.536;2022-11-20T05:28:02;43.10;;;6.30;;
64353;SDS011;50681;53.334;-6.536;2022-11-20T05:30:28;26.73;;;4.50;;
64353;SDS011;50681;53.334;-6.536;2022-11-20T05:32:53;34.70;;;4.93;;
64353;SDS011;50681;53.334;-6.536;2022-11-20T05:35:22;49.45;;;5.38;;
64353;SDS011;50681;53.334;-6.536;2022-11-20T05:37:47;49.03;;;4.80;;
64353;SDS011;50681;53.334;-6.536;2022-11-20T05:40:22;42.20;;;6.03;;
64353;SDS011;50681;53.334;-6.536;2022-11-20T05:42:47;32.53;;;5.30;;
64353;SDS011;50681;53.334;-6.536;2022-11-20T05:45:13;33.50;;;4.17;;
64353;SDS011;50681;53.334;-6.536;2022-11-20T05:47:40;31.27;;;4.47;;
64353;SDS011;50681;53.334;-6.536;2022-11-20T05:50:06;32.85;;;4.00;;
64353;SDS011;50681;53.334;-6.536;2022-11-20T05:52:32;56.87;;;4.07;;
64353;SDS011;50681;53.334;-6.536;2022-11-20T05:54:57;38.57;;;3.93;;
64353;SDS011;50681;53.334;-6.536;2022-11-20T05:57:22;35.63;;;4.70;;
64353;SDS011;50681;53.334;-6.536;2022-11-20T06:02:45;45.38;;;4.97;;
64353;SDS011;50681;53.334;-6.536;2022-11-20T06:05:28;32.83;;;3.97;;
64353;SDS011;50681;53.334;-6.536;2022-11-20T06:07:54;28.35;;;3.80;;
64353;SDS011;50681;53.334;-6.536;2022-11-20T06:10:21;27.20;;;3.43;;
64353;SDS011;50681;53.334;-6.536;2022-11-20T06:12:46;39.23;;;4.07;;
64353;SDS011;50681;53.334;-6.536;2022-11-20T06:15:12;35.33;;;3.83;;
64353;SDS011;50681;53.334;-6.536;2022-11-20T06:17:37;32.93;;;3.17;;
64353;SDS011;50681;53.334;-6.536;2022-11-20T06:20:02;44.17;;;4.63;;
64353;SDS011;50681;53.334;-6.536;2022-11-20T06:22:28;34.05;;;6.38;;
64353;SDS011;50681;53.334;-6.536;2022-11-20T06:24:54;33.87;;;3.77;;
64353;SDS011;50681;53.334;-6.536;2022-11-20T06:27:19;40.50;;;3.50;;
64353;SDS011;50681;53.334;-6.536;2022-11-20T06:29:44;21.97;;;3.10;;
64353;SDS011;50681;53.334;-6.536;2022-11-20T06:32:10;22.03;;;3.37;;
64353;SDS011;50681;53.334;-6.536;2022-11-20T06:38:10;35.17;;;3.77;;
64353;SDS011;50681;53.334;-6.536;2022-11-20T06:43:42;37.97;;;3.57;;
64353;SDS011;50681;53.334;-6.536;2022-11-20T06:46:08;35.72;;;4.00;;
64353;SDS011;50681;53.334;-6.536;2022-11-20T06:48:35;31.73;;;3.67;;
64353;SDS011;50681;53.334;-6.536;2022-11-20T06:51:04;32.83;;;3.93;;
64353;SDS011;50681;53.334;-6.536;2022-11-20T06:53:31;44.60;;;4.40;;
64353;SDS011;50681;53.334;-6.536;2022-11-20T06:55:57;28.65;;;4.28;;
64353;SDS011;50681;53.334;-6.536;2022-11-20T06:58:23;38.73;;;4.00;;
64353;SDS011;50681;53.334;-6.536;2022-11-20T07:00:51;28.33;;;3.20;;
64353;SDS011;50681;53.334;-6.536;2022-11-20T07:03:16;32.43;;;4.30;;
64353;SDS011;50681;53.334;-6.536;2022-11-20T07:05:42;34.23;;;4.07;;
64353;SDS011;50681;53.334;-6.536;2022-11-20T07:10:37;35.97;;;3.70;;
64353;SDS011;50681;53.334;-6.536;2022-11-20T07:13:03;36.83;;;4.60;;
64353;SDS011;50681;53.334;-6.536;2022-11-20T07:15:29;31.23;;;3.67;;
64353;SDS011;50681;53.334;-6.536;2022-11-20T07:18:05;31.52;;;3.88;;
64353;SDS011;50681;53.334;-6.536;2022-11-20T07:20:30;37.88;;;4.28;;
64353;SDS011;50681;53.334;-6.536;2022-11-20T07:22:56;36.60;;;4.37;;
64353;SDS011;50681;53.334;-6.536;2022-11-20T07:25:23;32.63;;;4.15;;
64353;SDS011;50681;53.334;-6.536;2022-11-20T07:27:49;42.90;;;4.60;;
64353;SDS011;50681;53.334;-6.536;2022-11-20T07:30:15;25.30;;;3.53;;
64353;SDS011;50681;53.334;-6.536;2022-11-20T07:35:06;37.77;;;4.67;;
64353;SDS011;50681;53.334;-6.536;2022-11-20T07:37:35;45.15;;;4.38;;
64353;SDS011;50681;53.334;-6.536;2022-11-20T07:40:01;36.20;;;5.00;;
64353;SDS011;50681;53.334;-6.536;2022-11-20T07:42:26;36.20;;;3.97;;
64353;SDS011;50681;53.334;-6.536;2022-11-20T07:44:51;48.30;;;4.00;;
64353;SDS011;50681;53.334;-6.536;2022-11-20T07:47:17;53.37;;;4.93;;
64353;SDS011;50681;53.334;-6.536;2022-11-20T07:49:50;37.27;;;3.80;;
64353;SDS011;50681;53.334;-6.536;2022-11-20T07:52:15;38.77;;;4.47;;
64353;SDS011;50681;53.334;-6.536;2022-11-20T07:54:40;32.47;;;3.77;;
64353;SDS011;50681;53.334;-6.536;2022-11-20T07:57:06;31.27;;;4.00;;
64353;SDS011;50681;53.334;-6.536;2022-11-20T07:59:31;34.60;;;4.10;;
64353;SDS011;50681;53.334;-6.536;2022-11-20T08:02:13;28.37;;;3.40;;
64353;SDS011;50681;53.334;-6.536;2022-11-20T08:04:39;30.40;;;4.70;;
64353;SDS011;50681;53.334;-6.536;2022-11-20T08:07:04;35.57;;;4.03;;
64353;SDS011;50681;53.334;-6.536;2022-11-20T08:09:29;41.37;;;3.60;;
64353;SDS011;50681;53.334;-6.536;2022-11-20T08:11:55;52.17;;;5.60;;
64353;SDS011;50681;53.334;-6.536;2022-11-20T08:14:39;52.17;;;4.90;;
64353;SDS011;50681;53.334;-6.536;2022-11-20T08:17:04;42.30;;;4.07;;
64353;SDS011;50681;53.334;-6.536;2022-11-20T08:19:30;31.07;;;4.03;;
64353;SDS011;50681;53.334;-6.536;2022-11-20T08:21:55;35.23;;;3.80;;
64353;SDS011;50681;53.334;-6.536;2022-11-20T08:24:21;33.07;;;3.83;;
64353;SDS011;50681;53.334;-6.536;2022-11-20T08:26:46;33.90;;;4.57;;
64353;SDS011;50681;53.334;-6.536;2022-11-20T08:29:13;47.05;;;4.80;;
64353;SDS011;50681;53.334;-6.536;2022-11-20T08:31:38;56.70;;;5.70;;
64353;SDS011;50681;53.334;-6.536;2022-11-20T08:37:01;40.20;;;5.17;;
64353;SDS011;50681;53.334;-6.536;2022-11-20T08:39:29;40.35;;;4.63;;
64353;SDS011;50681;53.334;-6.536;2022-11-20T08:41:55;47.88;;;4.65;;
64353;SDS011;50681;53.334;-6.536;2022-11-20T08:44:20;44.77;;;4.37;;
64353;SDS011;50681;53.334;-6.536;2022-11-20T08:46:45;32.43;;;5.70;;
64353;SDS011;50681;53.334;-6.536;2022-11-20T08:49:12;37.17;;;4.75;;
64353;SDS011;50681;53.334;-6.536;2022-11-20T08:51:39;36.65;;;4.50;;
64353;SDS011;50681;53.334;-6.536;2022-11-20T08:54:05;47.88;;;4.82;;
64353;SDS011;50681;53.334;-6.536;2022-11-20T08:56:32;31.15;;;3.78;;
64353;SDS011;50681;53.334;-6.536;2022-11-20T08:58:59;33.25;;;4.45;;
64353;SDS011;50681;53.334;-6.536;2022-11-20T09:01:24;41.47;;;5.30;;
64353;SDS011;50681;53.334;-6.536;2022-11-20T09:03:54;41.67;;;4.88;;
64353;SDS011;50681;53.334;-6.536;2022-11-20T09:06:27;35.80;;;3.58;;
64353;SDS011;50681;53.334;-6.536;2022-11-20T09:08:55;29.65;;;3.85;;
64353;SDS011;50681;53.334;-6.536;2022-11-20T09:11:21;39.83;;;3.97;;
64353;SDS011;50681;53.334;-6.536;2022-11-20T09:13:48;54.27;;;5.10;;
64353;SDS011;50681;53.334;-6.536;2022-11-20T09:16:14;39.05;;;3.92;;
64353;SDS011;50681;53.334;-6.536;2022-11-20T09:18:40;30.63;;;5.30;;
64353;SDS011;50681;53.334;-6.536;2022-11-20T09:21:08;23.20;;;3.30;;
64353;SDS011;50681;53.334;-6.536;2022-11-20T09:23:36;41.13;;;4.97;;
64353;SDS011;50681;53.334;-6.536;2022-11-20T09:26:03;47.00;;;5.22;;
64353;SDS011;50681;53.334;-6.536;2022-11-20T09:28:30;28.73;;;3.83;;
64353;SDS011;50681;53.334;-6.536;2022-11-20T09:30:56;34.05;;;3.75;;
64353;SDS011;50681;53.334;-6.536;2022-11-20T09:33:22;27.50;;;3.43;;
64353;SDS011;50681;53.334;-6.536;2022-11-20T09:35:47;44.63;;;8.90;;
64353;SDS011;50681;53.334;-6.536;2022-11-20T09:38:13;41.97;;;7.87;;
64353;SDS011;50681;53.334;-6.536;2022-11-20T09:40:49;21.45;;;5.13;;
64353;SDS011;50681;53.334;-6.536;2022-11-20T09:43:28;16.27;;;3.05;;
64353;SDS011;50681;53.334;-6.536;2022-11-20T09:56:56;28.10;;;3.58;;
64353;SDS011;50681;53.334;-6.536;2022-11-20T09:59:30;22.80;;;2.72;;
64353;SDS011;50681;53.334;-6.536;2022-11-20T10:01:58;15.07;;;2.85;;
64353;SDS011;50681;53.334;-6.536;2022-11-20T10:04:25;22.98;;;4.32;;
64353;SDS011;50681;53.334;-6.536;2022-11-20T10:09:33;24.02;;;3.03;;
64353;SDS011;50681;53.334;-6.536;2022-11-20T10:31:32;17.23;;;6.30;;
64353;SDS011;50681;53.334;-6.536;2022-11-20T10:34:03;5.50;;;1.65;;
64353;SDS011;50681;53.334;-6.536;2022-11-20T10:36:38;11.27;;;2.35;;
64353;SDS011;50681;53.334;-6.536;2022-11-20T10:41:59;9.68;;;2.08;;
64353;SDS011;50681;53.334;-6.536;2022-11-20T10:44:29;18.52;;;6.97;;
64353;SDS011;50681;53.334;-6.536;2022-11-20T10:47:14;5.03;;;1.10;;
64353;SDS011;50681;53.334;-6.536;2022-11-20T10:49:51;7.85;;;2.08;;
64353;SDS011;50681;53.334;-6.536;2022-11-20T11:00:41;7.90;;;2.90;;
64353;SDS011;50681;53.334;-6.536;2022-11-20T11:03:24;3.93;;;1.70;;
64353;SDS011;50681;53.334;-6.536;2022-11-20T11:09:09;2.95;;;1.48;;
64353;SDS011;50681;53.334;-6.536;2022-11-20T11:11:56;7.63;;;2.63;;
64353;SDS011;50681;53.334;-6.536;2022-11-20T11:14:22;5.10;;;1.38;;
64353;SDS011;50681;53.334;-6.536;2022-11-20T11:19:43;14.55;;;3.50;;
64353;SDS011;50681;53.334;-6.536;2022-11-20T11:22:10;5.00;;;1.77;;
64353;SDS011;50681;53.334;-6.536;2022-11-20T11:24:51;2.35;;;1.10;;
64353;SDS011;50681;53.334;-6.536;2022-11-20T11:27:17;4.50;;;1.10;;
64353;SDS011;50681;53.334;-6.536;2022-11-20T11:29:43;2.63;;;0.80;;
64353;SDS011;50681;53.334;-6.536;2022-11-20T11:32:17;6.07;;;1.15;;
64353;SDS011;50681;53.334;-6.536;2022-11-20T11:34:57;1.95;;;1.10;;
64353;SDS011;50681;53.334;-6.536;2022-11-20T11:37:35;1.90;;;0.95;;
64353;SDS011;50681;53.334;-6.536;2022-11-20T11:40:03;2.45;;;0.95;;
64353;SDS011;50681;53.334;-6.536;2022-11-20T11:42:29;1.17;;;0.68;;
64353;SDS011;50681;53.334;-6.536;2022-11-20T11:44:58;2.63;;;1.23;;
64353;SDS011;50681;53.334;-6.536;2022-11-20T11:47:37;4.88;;;0.93;;
64353;SDS011;50681;53.334;-6.536;2022-11-20T11:52:44;2.83;;;0.93;;
64353;SDS011;50681;53.334;-6.536;2022-11-20T11:55:17;4.57;;;1.45;;
64353;SDS011;50681;53.334;-6.536;2022-11-20T12:00:34;4.25;;;1.20;;
64353;SDS011;50681;53.334;-6.536;2022-11-20T12:03:13;4.22;;;1.00;;
64353;SDS011;50681;53.334;-6.536;2022-11-20T12:05:45;5.93;;;1.27;;
64353;SDS011;50681;53.334;-6.536;2022-11-20T12:10:50;3.30;;;1.40;;
64353;SDS011;50681;53.334;-6.536;2022-11-20T12:15:58;3.42;;;0.90;;
64353;SDS011;50681;53.334;-6.536;2022-11-20T12:18:24;3.53;;;1.05;;
64353;SDS011;50681;53.334;-6.536;2022-11-20T12:26:39;4.43;;;1.25;;
64353;SDS011;50681;53.334;-6.536;2022-11-20T12:37:30;7.82;;;1.73;;
64353;SDS011;50681;53.334;-6.536;2022-11-20T12:46:14;6.45;;;1.75;;
64353;SDS011;50681;53.334;-6.536;2022-11-20T12:49:04;12.00;;;1.48;;
64353;SDS011;50681;53.334;-6.536;2022-11-20T12:51:50;9.07;;;2.08;;
64353;SDS011;50681;53.334;-6.536;2022-11-20T12:57:29;6.50;;;1.90;;
64353;SDS011;50681;53.334;-6.536;2022-11-20T13:00:09;12.75;;;2.58;;
64353;SDS011;50681;53.334;-6.536;2022-11-20T13:05:24;7.05;;;1.42;;
64353;SDS011;50681;53.334;-6.536;2022-11-20T13:07:59;2.42;;;0.80;;
64353;SDS011;50681;53.334;-6.536;2022-11-20T13:16:22;4.30;;;1.70;;
64353;SDS011;50681;53.334;-6.536;2022-11-20T13:19:02;3.88;;;1.88;;
64353;SDS011;50681;53.334;-6.536;2022-11-20T13:21:36;7.38;;;1.92;;
64353;SDS011;50681;53.334;-6.536;2022-11-20T13:24:50;9.85;;;1.77;;
64353;SDS011;50681;53.334;-6.536;2022-11-20T13:27:16;5.95;;;2.97;;
64353;SDS011;50681;53.334;-6.536;2022-11-20T13:29:46;2.53;;;1.33;;
64353;SDS011;50681;53.334;-6.536;2022-11-20T13:32:24;6.65;;;2.22;;
64353;SDS011;50681;53.334;-6.536;2022-11-20T13:34:51;7.30;;;1.77;;
64353;SDS011;50681;53.334;-6.536;2022-11-20T13:37:29;5.90;;;1.63;;
64353;SDS011;50681;53.334;-6.536;2022-11-20T13:42:44;5.13;;;1.40;;
64353;SDS011;50681;53.334;-6.536;2022-11-20T13:45:23;12.20;;;1.92;;
64353;SDS011;50681;53.334;-6.536;2022-11-20T13:47:53;6.63;;;1.60;;
64353;SDS011;50681;53.334;-6.536;2022-11-20T13:50:21;11.05;;;2.33;;
64353;SDS011;50681;53.334;-6.536;2022-11-20T13:53:27;4.93;;;1.55;;
64353;SDS011;50681;53.334;-6.536;2022-11-20T14:01:29;7.72;;;1.75;;
64353;SDS011;50681;53.334;-6.536;2022-11-20T14:03:59;12.90;;;2.42;;
64353;SDS011;50681;53.334;-6.536;2022-11-20T14:06:34;8.50;;;1.85;;
64353;SDS011;50681;53.334;-6.536;2022-11-20T14:09:09;4.18;;;1.40;;
64353;SDS011;50681;53.334;-6.536;2022-11-20T14:11:37;11.88;;;2.30;;
64353;SDS011;50681;53.334;-6.536;2022-11-20T14:14:18;7.05;;;1.52;;
64353;SDS011;50681;53.334;-6.536;2022-11-20T14:16:46;8.48;;;2.45;;
64353;SDS011;50681;53.334;-6.536;2022-11-20T14:22:06;11.05;;;2.58;;
64353;SDS011;50681;53.334;-6.536;2022-11-20T14:24:49;10.02;;;3.08;;
64353;SDS011;50681;53.334;-6.536;2022-11-20T14:27:26;9.30;;;1.80;;
64353;SDS011;50681;53.334;-6.536;2022-11-20T14:29:52;7.03;;;1.73;;
64353;SDS011;50681;53.334;-6.536;2022-11-20T14:32:19;9.55;;;2.22;;
64353;SDS011;50681;53.334;-6.536;2022-11-20T14:34:47;5.63;;;1.30;;
64353;SDS011;50681;53.334;-6.536;2022-11-20T14:37:22;8.00;;;1.70;;
64353;SDS011;50681;53.334;-6.536;2022-11-20T14:39:55;12.35;;;1.42;;
64353;SDS011;50681;53.334;-6.536;2022-11-20T14:42:25;6.88;;;2.00;;
64353;SDS011;50681;53.334;-6.536;2022-11-20T14:44:52;7.70;;;2.00;;
64353;SDS011;50681;53.334;-6.536;2022-11-20T14:47:21;5.05;;;1.67;;
64353;SDS011;50681;53.334;-6.536;2022-11-20T14:49:58;4.20;;;1.20;;
64353;SDS011;50681;53.334;-6.536;2022-11-20T14:52:26;7.80;;;1.80;;
64353;SDS011;50681;53.334;-6.536;2022-11-20T14:54:54;3.85;;;1.25;;
64353;SDS011;50681;53.334;-6.536;2022-11-20T14:57:32;8.52;;;2.20;;
64353;SDS011;50681;53.334;-6.536;2022-11-20T15:02:43;7.95;;;1.38;;
64353;SDS011;50681;53.334;-6.536;2022-11-20T15:05:10;4.78;;;1.27;;
64353;SDS011;50681;53.334;-6.536;2022-11-20T15:07:38;4.70;;;1.38;;
64353;SDS011;50681;53.334;-6.536;2022-11-20T15:10:07;10.60;;;2.13;;
64353;SDS011;50681;53.334;-6.536;2022-11-20T15:12:55;7.57;;;1.67;;
64353;SDS011;50681;53.334;-6.536;2022-11-20T15:18:13;7.70;;;2.20;;
64353;SDS011;50681;53.334;-6.536;2022-11-20T15:20:41;9.77;;;2.58;;
64353;SDS011;50681;53.334;-6.536;2022-11-20T15:23:11;11.52;;;3.10;;
64353;SDS011;50681;53.334;-6.536;2022-11-20T15:25:38;6.05;;;2.38;;
64353;SDS011;50681;53.334;-6.536;2022-11-20T15:30:37;8.80;;;3.05;;
64353;SDS011;50681;53.334;-6.536;2022-11-20T15:33:03;10.90;;;3.17;;
64353;SDS011;50681;53.334;-6.536;2022-11-20T15:35:28;9.33;;;3.30;;
64353;SDS011;50681;53.334;-6.536;2022-11-20T15:37:53;8.03;;;3.03;;
64353;SDS011;50681;53.334;-6.536;2022-11-20T15:40:19;17.30;;;8.20;;
64353;SDS011;50681;53.334;-6.536;2022-11-20T15:42:46;9.15;;;3.60;;
64353;SDS011;50681;53.334;-6.536;2022-11-20T15:45:38;14.43;;;5.32;;
64353;SDS011;50681;53.334;-6.536;2022-11-20T15:48:12;16.52;;;6.07;;
64353;SDS011;50681;53.334;-6.536;2022-11-20T15:50:53;14.52;;;6.10;;
64353;SDS011;50681;53.334;-6.536;2022-11-20T15:53:28;17.20;;;6.45;;
64353;SDS011;50681;53.334;-6.536;2022-11-20T15:55:54;11.43;;;5.20;;
64353;SDS011;50681;53.334;-6.536;2022-11-20T15:58:20;18.00;;;6.00;;
64353;SDS011;50681;53.334;-6.536;2022-11-20T16:00:45;14.50;;;7.43;;
64353;SDS011;50681;53.334;-6.536;2022-11-20T16:03:11;19.67;;;10.60;;
64353;SDS011;50681;53.334;-6.536;2022-11-20T16:05:37;55.20;;;27.38;;
64353;SDS011;50681;53.334;-6.536;2022-11-20T16:11:06;25.58;;;12.55;;
64353;SDS011;50681;53.334;-6.536;2022-11-20T16:13:44;23.58;;;11.85;;
64353;SDS011;50681;53.334;-6.536;2022-11-20T16:16:33;58.28;;;27.90;;
64353;SDS011;50681;53.334;-6.536;2022-11-20T16:19:01;37.80;;;19.05;;
64353;SDS011;50681;53.334;-6.536;2022-11-20T16:25:08;23.65;;;9.35;;
64353;SDS011;50681;53.334;-6.536;2022-11-20T16:27:38;31.15;;;12.95;;
64353;SDS011;50681;53.334;-6.536;2022-11-20T16:30:04;26.02;;;12.48;;
64353;SDS011;50681;53.334;-6.536;2022-11-20T16:32:40;25.35;;;12.10;;
64353;SDS011;50681;53.334;-6.536;2022-11-20T16:35:16;21.40;;;9.27;;
64353;SDS011;50681;53.334;-6.536;2022-11-20T16:37:57;23.33;;;9.13;;
64353;SDS011;50681;53.334;-6.536;2022-11-20T16:40:27;24.52;;;9.27;;
64353;SDS011;50681;53.334;-6.536;2022-11-20T16:43:06;24.92;;;11.77;;
64353;SDS011;50681;53.334;-6.536;2022-11-20T16:45:36;30.58;;;11.52;;
64353;SDS011;50681;53.334;-6.536;2022-11-20T16:48:06;28.30;;;12.43;;
64353;SDS011;50681;53.334;-6.536;2022-11-20T16:50:55;37.28;;;14.07;;
64353;SDS011;50681;53.334;-6.536;2022-11-20T16:53:21;29.63;;;12.20;;
64353;SDS011;50681;53.334;-6.536;2022-11-20T16:55:48;44.83;;;18.13;;
64353;SDS011;50681;53.334;-6.536;2022-11-20T16:58:15;37.35;;;16.10;;
64353;SDS011;50681;53.334;-6.536;2022-11-20T17:03:17;84.53;;;37.63;;
64353;SDS011;50681;53.334;-6.536;2022-11-20T17:05:44;72.40;;;39.97;;
64353;SDS011;50681;53.334;-6.536;2022-11-20T17:08:12;45.35;;;22.13;;
64353;SDS011;50681;53.334;-6.536;2022-11-20T17:10:38;56.83;;;23.17;;
64353;SDS011;50681;53.334;-6.536;2022-11-20T17:13:06;36.08;;;20.58;;
64353;SDS011;50681;53.334;-6.536;2022-11-20T17:15:51;42.03;;;16.58;;